Time;durP1;ratioP1;P1;durP2;ratioP2;P2;SDS_P1;SDS_P2;PMS_P1;PMS_P2;Temp;Humidity;BMP_temperature;BMP_pressure;BME280_temperature;BME280_humidity;BME280_pressure;Samples;Min_cycle;Max_cycle;Signal;HPM_P1;HPM_P2
2023/02/26 00:00:20;;;;;;;304.75;254.15;;;;;;;;;;5055355;28;20171;-50
2023/02/26 00:02:47;;;;;;;302.95;248.43;;;;;;;;;;5054570;28;20229;-50
2023/02/26 00:05:13;;;;;;;294.50;245.15;;;;;;;;;;5061983;28;20214;-50
2023/02/26 00:07:39;;;;;;;291.83;237.88;;;;;;;;;;5059247;28;20180;-50
2023/02/26 00:10:07;;;;;;;278.88;231.52;;;;;;;;;;5064525;28;20510;-50
2023/02/26 00:12:33;;;;;;;273.55;227.23;;;;;;;;;;5048674;28;20211;-50
2023/02/26 00:14:59;;;;;;;273.15;223.75;;;;;;;;;;5057955;28;20233;-50
2023/02/26 00:17:30;;;;;;;266.88;216.85;;;;;;;;;;5054994;28;20211;-50
2023/02/26 00:19:56;;;;;;;263.65;213.75;;;;;;;;;;5048857;28;20187;-50
2023/02/26 00:22:22;;;;;;;256.10;207.13;;;;;;;;;;5047869;28;20262;-50
2023/02/26 00:24:48;;;;;;;242.50;198.82;;;;;;;;;;5065154;28;20179;-50
2023/02/26 00:27:14;;;;;;;241.13;194.68;;;;;;;;;;5062307;28;20229;-50
2023/02/26 00:29:40;;;;;;;240.60;196.45;;;;;;;;;;5045896;28;20211;-50
2023/02/26 00:32:06;;;;;;;227.50;186.93;;;;;;;;;;5057432;28;20212;-50
2023/02/26 00:34:32;;;;;;;224.57;182.50;;;;;;;;;;5047518;28;20672;-50
2023/02/26 00:37:08;;;;;;;224.68;177.85;;;;;;;;;;5050980;28;20198;-50
2023/02/26 00:39:46;;;;;;;216.38;174.70;;;;;;;;;;5045433;28;20187;-50
2023/02/26 00:42:12;;;;;;;213.13;167.13;;;;;;;;;;5049150;28;20266;-50
2023/02/26 00:44:38;;;;;;;205.23;162.13;;;;;;;;;;5051111;28;20184;-50
2023/02/26 00:47:23;;;;;;;202.45;161.05;;;;;;;;;;5053270;28;20190;-50
2023/02/26 00:49:56;;;;;;;193.50;154.00;;;;;;;;;;5057757;28;20218;-50
2023/02/26 00:52:28;;;;;;;193.85;154.30;;;;;;;;;;5047727;28;20179;-51
2023/02/26 00:54:54;;;;;;;183.75;148.05;;;;;;;;;;5041896;28;20610;-50
2023/02/26 00:57:20;;;;;;;177.20;142.13;;;;;;;;;;5043450;28;20294;-50
2023/02/26 00:59:46;;;;;;;177.88;142.43;;;;;;;;;;5045791;28;20750;-50
2023/02/26 01:02:12;;;;;;;168.88;137.80;;;;;;;;;;5046878;28;20213;-50
2023/02/26 01:04:38;;;;;;;168.73;135.82;;;;;;;;;;5046256;28;20489;-51
2023/02/26 01:07:04;;;;;;;165.20;131.10;;;;;;;;;;5051739;28;20183;-50
2023/02/26 01:09:32;;;;;;;159.88;131.63;;;;;;;;;;5051065;28;20586;-50
2023/02/26 01:12:00;;;;;;;154.95;128.32;;;;;;;;;;5047225;28;20183;-50
2023/02/26 01:14:26;;;;;;;151.05;123.05;;;;;;;;;;5056868;28;20192;-50
2023/02/26 01:17:11;;;;;;;148.88;121.03;;;;;;;;;;5047261;28;20214;-50
2023/02/26 01:19:46;;;;;;;145.73;118.60;;;;;;;;;;5042708;28;20304;-50
2023/02/26 01:22:20;;;;;;;142.63;114.53;;;;;;;;;;5044792;28;20186;-50
2023/02/26 01:24:47;;;;;;;140.25;112.35;;;;;;;;;;5040157;28;20194;-50
2023/02/26 01:27:13;;;;;;;133.82;110.60;;;;;;;;;;5056733;28;20179;-50
2023/02/26 01:29:39;;;;;;;129.02;105.43;;;;;;;;;;5050773;28;20276;-50
2023/02/26 01:32:21;;;;;;;125.55;102.45;;;;;;;;;;5055035;28;20183;-50
2023/02/26 01:35:05;;;;;;;124.18;100.20;;;;;;;;;;5061501;28;20467;-50
2023/02/26 01:37:31;;;;;;;120.72;99.35;;;;;;;;;;5048965;28;20474;-50
2023/02/26 01:40:04;;;;;;;119.68;97.82;;;;;;;;;;5054462;28;20179;-50
2023/02/26 01:42:34;;;;;;;119.85;96.35;;;;;;;;;;5047446;28;20180;-51
2023/02/26 01:45:23;;;;;;;115.68;91.28;;;;;;;;;;5050878;28;20227;-50
2023/02/26 01:48:01;;;;;;;110.47;89.45;;;;;;;;;;5052402;28;20183;-50
2023/02/26 01:50:31;;;;;;;109.95;86.55;;;;;;;;;;5067798;28;20477;-50
2023/02/26 01:53:15;;;;;;;103.80;87.30;;;;;;;;;;5041115;28;20186;-50
2023/02/26 01:55:43;;;;;;;104.75;82.35;;;;;;;;;;5053209;28;20183;-51
2023/02/26 01:58:09;;;;;;;100.90;80.93;;;;;;;;;;5049107;28;20443;-50
2023/02/26 02:00:35;;;;;;;99.68;79.65;;;;;;;;;;5045843;28;20188;-50
2023/02/26 02:03:01;;;;;;;97.72;79.20;;;;;;;;;;5053429;28;20183;-50
2023/02/26 02:05:33;;;;;;;93.80;74.50;;;;;;;;;;5061926;28;20189;-50
2023/02/26 02:07:59;;;;;;;89.00;72.93;;;;;;;;;;5046110;28;20190;-50
2023/02/26 02:10:26;;;;;;;92.70;72.57;;;;;;;;;;5058368;28;20210;-50
2023/02/26 02:13:01;;;;;;;84.93;68.75;;;;;;;;;;5057363;28;20179;-50
2023/02/26 02:15:38;;;;;;;86.60;68.22;;;;;;;;;;5060745;28;20182;-51
2023/02/26 02:18:07;;;;;;;83.10;65.25;;;;;;;;;;5051521;28;20596;-50
2023/02/26 02:20:39;;;;;;;81.00;65.30;;;;;;;;;;5056799;28;20305;-50
2023/02/26 02:23:09;;;;;;;78.00;61.75;;;;;;;;;;5047740;28;20194;-50
2023/02/26 02:25:40;;;;;;;74.63;60.78;;;;;;;;;;5056056;28;20170;-50
2023/02/26 02:28:14;;;;;;;74.00;61.72;;;;;;;;;;5046428;28;20219;-50
2023/02/26 02:30:58;;;;;;;68.95;56.65;;;;;;;;;;5064003;28;20705;-50
2023/02/26 02:33:30;;;;;;;68.90;56.10;;;;;;;;;;5044722;28;20183;-50
2023/02/26 02:35:59;;;;;;;70.85;55.95;;;;;;;;;;5050630;28;20466;-50
2023/02/26 02:38:27;;;;;;;66.15;53.70;;;;;;;;;;5051904;28;20260;-50
2023/02/26 02:41:00;;;;;;;67.90;53.58;;;;;;;;;;5073917;28;20224;-50
2023/02/26 02:43:28;;;;;;;65.93;52.95;;;;;;;;;;5044361;28;20176;-51
2023/02/26 02:45:57;;;;;;;65.35;51.33;;;;;;;;;;5062990;28;20212;-50
2023/02/26 02:48:44;;;;;;;59.45;49.45;;;;;;;;;;5058961;28;20261;-51
2023/02/26 02:51:17;;;;;;;55.85;46.60;;;;;;;;;;5040894;28;20190;-50
2023/02/26 02:53:49;;;;;;;56.75;47.58;;;;;;;;;;5045630;28;20188;-50
2023/02/26 02:56:17;;;;;;;54.78;45.53;;;;;;;;;;5042912;28;20593;-50
2023/02/26 02:58:46;;;;;;;55.17;46.72;;;;;;;;;;5050207;28;20175;-51
2023/02/26 03:01:14;;;;;;;52.05;43.22;;;;;;;;;;5035173;28;20184;-51
2023/02/26 03:03:44;;;;;;;52.90;43.72;;;;;;;;;;5036482;28;20459;-50
2023/02/26 03:06:10;;;;;;;49.40;41.40;;;;;;;;;;5039063;28;20204;-50
2023/02/26 03:08:38;;;;;;;48.50;41.65;;;;;;;;;;5042063;28;20195;-50
2023/02/26 03:11:04;;;;;;;46.65;39.55;;;;;;;;;;5052593;28;20205;-50
2023/02/26 03:13:30;;;;;;;46.05;38.20;;;;;;;;;;5059867;28;20187;-50
2023/02/26 03:15:56;;;;;;;45.47;38.25;;;;;;;;;;5060466;28;20298;-51
2023/02/26 03:18:36;;;;;;;45.17;38.05;;;;;;;;;;5054933;28;20258;-50
2023/02/26 03:21:15;;;;;;;43.53;37.10;;;;;;;;;;5048751;28;20190;-50
2023/02/26 03:23:49;;;;;;;42.13;36.33;;;;;;;;;;5048344;28;20242;-50
2023/02/26 03:26:18;;;;;;;42.10;36.28;;;;;;;;;;5075097;28;20491;-50
2023/02/26 03:28:48;;;;;;;40.65;34.40;;;;;;;;;;5066294;28;20740;-50
2023/02/26 03:31:20;;;;;;;40.72;34.25;;;;;;;;;;5065548;28;20187;-50
2023/02/26 03:33:49;;;;;;;40.25;33.88;;;;;;;;;;5054844;28;20175;-51
2023/02/26 03:36:27;;;;;;;35.20;31.38;;;;;;;;;;5074893;28;20458;-50
2023/02/26 03:38:56;;;;;;;37.70;31.30;;;;;;;;;;5051820;28;20266;-50
2023/02/26 03:41:27;;;;;;;37.33;31.38;;;;;;;;;;5056710;28;20617;-50
2023/02/26 03:43:53;;;;;;;35.90;30.48;;;;;;;;;;5052572;28;20217;-50
2023/02/26 03:46:29;;;;;;;33.63;28.70;;;;;;;;;;5047896;28;20732;-50
2023/02/26 03:48:56;;;;;;;34.63;28.83;;;;;;;;;;5060965;28;20573;-50
2023/02/26 03:51:23;;;;;;;32.22;27.75;;;;;;;;;;5070182;28;20190;-50
2023/02/26 03:53:53;;;;;;;33.28;28.63;;;;;;;;;;5055021;28;20314;-50
2023/02/26 03:56:22;;;;;;;33.35;27.33;;;;;;;;;;5060754;28;20207;-50
2023/02/26 03:58:48;;;;;;;29.50;25.77;;;;;;;;;;5062387;28;20179;-50
2023/02/26 04:01:18;;;;;;;30.42;26.02;;;;;;;;;;5072304;28;20182;-49
2023/02/26 04:03:55;;;;;;;30.33;25.90;;;;;;;;;;5059953;28;20178;-50
2023/02/26 04:06:21;;;;;;;29.75;25.83;;;;;;;;;;5059931;28;20186;-50
2023/02/26 04:08:47;;;;;;;27.75;24.38;;;;;;;;;;5050759;28;20219;-50
2023/02/26 04:11:18;;;;;;;28.85;24.27;;;;;;;;;;5072314;28;20197;-50
2023/02/26 04:13:44;;;;;;;27.73;23.98;;;;;;;;;;5057450;28;20186;-51
2023/02/26 04:16:10;;;;;;;27.77;23.38;;;;;;;;;;5052656;28;20210;-50
2023/02/26 04:18:36;;;;;;;27.50;23.40;;;;;;;;;;5058434;28;20554;-50
2023/02/26 04:21:01;;;;;;;27.77;22.33;;;;;;;;;;5068180;28;20239;-51
2023/02/26 04:23:27;;;;;;;26.02;21.75;;;;;;;;;;5052492;28;20221;-50
2023/02/26 04:25:53;;;;;;;24.30;21.02;;;;;;;;;;5057128;28;20515;-50
2023/02/26 04:28:19;;;;;;;24.58;21.17;;;;;;;;;;5070481;28;20198;-50
2023/02/26 04:30:45;;;;;;;25.40;21.15;;;;;;;;;;5058429;28;20194;-50
2023/02/26 04:33:12;;;;;;;22.27;19.52;;;;;;;;;;5051444;28;20605;-50
2023/02/26 04:35:38;;;;;;;23.63;20.05;;;;;;;;;;5045377;28;20250;-50
2023/02/26 04:38:04;;;;;;;21.75;18.90;;;;;;;;;;5061431;28;20183;-50
2023/02/26 04:40:30;;;;;;;21.92;19.10;;;;;;;;;;5064845;28;20183;-50
2023/02/26 04:42:56;;;;;;;20.52;18.02;;;;;;;;;;5058511;28;20191;-50
2023/02/26 04:45:22;;;;;;;20.38;18.20;;;;;;;;;;5050156;28;20175;-50
2023/02/26 04:47:48;;;;;;;22.02;18.42;;;;;;;;;;5057837;28;20218;-49
2023/02/26 04:50:14;;;;;;;20.98;18.00;;;;;;;;;;5054978;28;20232;-50
2023/02/26 04:52:40;;;;;;;20.05;17.23;;;;;;;;;;5049234;28;20224;-50
2023/02/26 04:55:06;;;;;;;19.73;16.63;;;;;;;;;;5046872;28;20191;-50
2023/02/26 04:57:32;;;;;;;19.95;16.98;;;;;;;;;;5037420;28;20308;-49
2023/02/26 04:59:58;;;;;;;20.05;16.67;;;;;;;;;;5036456;28;20184;-50
2023/02/26 05:02:24;;;;;;;18.90;16.90;;;;;;;;;;5041421;28;20188;-50
2023/02/26 05:04:50;;;;;;;18.50;16.27;;;;;;;;;;5044959;28;20184;-50
2023/02/26 05:07:16;;;;;;;18.55;16.17;;;;;;;;;;5047110;28;20190;-51
2023/02/26 05:09:42;;;;;;;17.65;15.60;;;;;;;;;;5052491;28;20241;-50
2023/02/26 05:12:08;;;;;;;17.25;14.75;;;;;;;;;;5058948;28;20256;-50
2023/02/26 05:14:34;;;;;;;17.17;14.93;;;;;;;;;;5046667;28;20284;-50
2023/02/26 05:17:00;;;;;;;16.55;14.70;;;;;;;;;;5043074;28;20797;-50
2023/02/26 05:19:26;;;;;;;16.15;13.80;;;;;;;;;;5044417;28;20187;-50
2023/02/26 05:21:52;;;;;;;16.23;14.27;;;;;;;;;;5056159;28;20692;-50
2023/02/26 05:24:18;;;;;;;17.80;14.75;;;;;;;;;;5055099;28;20189;-49
2023/02/26 05:26:43;;;;;;;14.65;12.82;;;;;;;;;;5054791;28;20187;-50
2023/02/26 05:29:09;;;;;;;15.38;13.25;;;;;;;;;;5063885;28;20231;-50
2023/02/26 05:31:36;;;;;;;15.20;13.02;;;;;;;;;;5061086;28;20516;-50
2023/02/26 05:34:02;;;;;;;15.60;13.57;;;;;;;;;;5048999;28;20521;-50
2023/02/26 05:36:28;;;;;;;14.75;12.52;;;;;;;;;;5050096;28;20305;-50
2023/02/26 05:38:54;;;;;;;15.18;12.38;;;;;;;;;;5070431;28;20175;-50
2023/02/26 05:41:21;;;;;;;15.25;12.60;;;;;;;;;;5057803;28;20207;-51
2023/02/26 05:43:47;;;;;;;13.63;12.23;;;;;;;;;;5049543;28;20187;-50
2023/02/26 05:46:13;;;;;;;14.25;11.82;;;;;;;;;;5050992;28;20193;-50
2023/02/26 05:48:39;;;;;;;15.05;12.82;;;;;;;;;;5061721;28;20573;-50
2023/02/26 05:51:05;;;;;;;13.63;12.00;;;;;;;;;;5065888;28;20182;-50
2023/02/26 05:53:30;;;;;;;13.23;11.43;;;;;;;;;;5055045;28;20883;-49
2023/02/26 05:55:56;;;;;;;13.75;11.50;;;;;;;;;;5059621;28;20211;-50
2023/02/26 05:58:22;;;;;;;12.52;11.23;;;;;;;;;;5054983;28;20197;-50
2023/02/26 06:00:48;;;;;;;11.90;10.52;;;;;;;;;;5065767;28;20230;-51
2023/02/26 06:03:14;;;;;;;12.02;10.63;;;;;;;;;;5063868;28;20187;-50
2023/02/26 06:05:40;;;;;;;12.23;10.10;;;;;;;;;;5052023;28;20188;-50
2023/02/26 06:08:06;;;;;;;10.85;9.75;;;;;;;;;;5046791;28;20190;-50
2023/02/26 06:10:32;;;;;;;11.10;9.93;;;;;;;;;;5069193;28;20637;-50
2023/02/26 06:12:58;;;;;;;10.82;9.80;;;;;;;;;;5048474;28;20228;-50
2023/02/26 06:15:24;;;;;;;11.95;9.82;;;;;;;;;;5058437;28;20555;-50
2023/02/26 06:17:50;;;;;;;11.65;10.18;;;;;;;;;;5057469;28;20217;-50
2023/02/26 06:20:16;;;;;;;10.35;8.73;;;;;;;;;;5059541;28;20239;-50
2023/02/26 06:22:42;;;;;;;10.43;9.32;;;;;;;;;;5060537;28;20634;-50
2023/02/26 06:25:08;;;;;;;10.43;8.60;;;;;;;;;;5062882;28;20175;-50
2023/02/26 06:27:34;;;;;;;10.40;8.25;;;;;;;;;;5058260;28;20186;-50
2023/02/26 06:30:00;;;;;;;10.98;9.02;;;;;;;;;;5054888;28;20621;-50
2023/02/26 06:32:26;;;;;;;9.57;8.40;;;;;;;;;;5061655;28;20179;-51
2023/02/26 06:34:52;;;;;;;9.60;7.75;;;;;;;;;;5062695;28;20596;-50
2023/02/26 06:37:18;;;;;;;9.30;8.40;;;;;;;;;;5057736;28;20780;-50
2023/02/26 06:39:44;;;;;;;8.82;7.85;;;;;;;;;;5058118;28;20214;-50
2023/02/26 06:42:10;;;;;;;9.27;7.63;;;;;;;;;;5054651;28;20179;-50
2023/02/26 06:44:36;;;;;;;9.23;8.02;;;;;;;;;;5058227;28;20609;-50
2023/02/26 06:47:01;;;;;;;8.00;6.93;;;;;;;;;;5066008;28;20191;-50
2023/02/26 06:49:27;;;;;;;8.38;7.47;;;;;;;;;;5056338;28;20206;-51
2023/02/26 06:51:53;;;;;;;7.90;7.13;;;;;;;;;;5052675;28;20186;-50
2023/02/26 06:54:19;;;;;;;7.50;6.80;;;;;;;;;;5044319;28;20228;-50
2023/02/26 06:56:45;;;;;;;7.85;7.05;;;;;;;;;;5050168;28;20817;-50
2023/02/26 06:59:11;;;;;;;8.27;7.47;;;;;;;;;;5051350;28;20257;-51
2023/02/26 07:01:38;;;;;;;8.10;6.45;;;;;;;;;;5054728;28;20542;-50
2023/02/26 07:04:03;;;;;;;7.05;6.35;;;;;;;;;;5035660;28;20188;-51
2023/02/26 07:06:29;;;;;;;6.80;6.10;;;;;;;;;;5040704;28;20179;-50
2023/02/26 07:08:55;;;;;;;6.35;5.75;;;;;;;;;;5045235;28;20458;-50
2023/02/26 07:11:21;;;;;;;8.63;6.78;;;;;;;;;;5049947;28;20201;-50
2023/02/26 07:13:47;;;;;;;7.78;6.60;;;;;;;;;;5062037;28;20182;-50
2023/02/26 07:16:13;;;;;;;7.25;6.00;;;;;;;;;;5043957;28;20704;-50
2023/02/26 07:18:39;;;;;;;6.10;5.50;;;;;;;;;;5045638;28;20203;-50
2023/02/26 07:21:06;;;;;;;6.35;5.68;;;;;;;;;;5037541;28;20183;-50
2023/02/26 07:23:32;;;;;;;6.70;5.93;;;;;;;;;;5042392;28;20177;-48
2023/02/26 07:25:58;;;;;;;6.60;5.55;;;;;;;;;;5054102;28;20171;-50
2023/02/26 07:28:24;;;;;;;5.93;4.70;;;;;;;;;;5051291;28;20187;-50
2023/02/26 07:30:50;;;;;;;6.28;5.00;;;;;;;;;;5061253;28;20222;-50
2023/02/26 07:33:16;;;;;;;5.47;4.93;;;;;;;;;;5060079;28;20265;-50
2023/02/26 07:35:42;;;;;;;6.03;5.43;;;;;;;;;;5068899;28;20294;-50
2023/02/26 07:38:08;;;;;;;5.25;4.75;;;;;;;;;;5048389;28;20187;-50
2023/02/26 07:40:34;;;;;;;5.40;4.85;;;;;;;;;;5066227;28;20461;-50
2023/02/26 07:42:59;;;;;;;5.82;4.82;;;;;;;;;;5050498;28;20187;-51
2023/02/26 07:45:26;;;;;;;5.50;4.97;;;;;;;;;;5056494;28;20182;-50
2023/02/26 07:47:52;;;;;;;6.03;5.20;;;;;;;;;;5052829;28;20265;-50
2023/02/26 07:50:19;;;;;;;5.15;4.65;;;;;;;;;;5073199;28;20505;-50
2023/02/26 07:52:45;;;;;;;5.55;4.95;;;;;;;;;;5047857;28;20175;-50
2023/02/26 07:55:11;;;;;;;5.22;4.57;;;;;;;;;;5062823;28;20186;-50
2023/02/26 07:57:37;;;;;;;4.70;4.00;;;;;;;;;;5044457;28;20553;-51
2023/02/26 08:00:04;;;;;;;4.70;4.30;;;;;;;;;;5055830;28;20257;-50
2023/02/26 08:02:30;;;;;;;5.10;4.60;;;;;;;;;;5060818;28;20190;-50
2023/02/26 08:04:56;;;;;;;4.90;3.90;;;;;;;;;;5064999;28;20178;-50
2023/02/26 08:07:22;;;;;;;5.32;4.30;;;;;;;;;;5063388;28;20181;-50
2023/02/26 08:09:48;;;;;;;4.60;4.07;;;;;;;;;;5068409;28;20545;-50
2023/02/26 08:12:14;;;;;;;5.32;4.20;;;;;;;;;;5059163;28;20555;-50
2023/02/26 08:14:40;;;;;;;4.15;3.75;;;;;;;;;;5060613;28;20186;-50
2023/02/26 08:17:07;;;;;;;4.80;3.78;;;;;;;;;;5055696;28;20212;-50
2023/02/26 08:19:33;;;;;;;4.22;3.63;;;;;;;;;;5056924;28;20290;-50
2023/02/26 08:21:58;;;;;;;3.80;3.50;;;;;;;;;;5062555;28;20231;-50
2023/02/26 08:24:24;;;;;;;4.40;3.90;;;;;;;;;;5068961;28;20348;-50
2023/02/26 08:26:50;;;;;;;3.40;3.10;;;;;;;;;;5043300;28;20187;-50
2023/02/26 08:29:16;;;;;;;4.10;3.60;;;;;;;;;;5066166;28;20272;-50
2023/02/26 08:31:42;;;;;;;4.15;3.75;;;;;;;;;;5055567;28;20213;-50
2023/02/26 08:34:08;;;;;;;3.45;3.15;;;;;;;;;;5058470;28;20221;-50
2023/02/26 08:36:34;;;;;;;3.55;3.20;;;;;;;;;;5051466;28;20210;-50
2023/02/26 08:39:00;;;;;;;4.38;3.60;;;;;;;;;;5058142;28;20172;-50
2023/02/26 08:41:28;;;;;;;3.97;3.22;;;;;;;;;;5069858;28;20559;-50
2023/02/26 08:43:54;;;;;;;3.50;3.20;;;;;;;;;;5049374;28;20180;-50
2023/02/26 08:46:20;;;;;;;3.25;2.90;;;;;;;;;;5062415;28;20189;-50
2023/02/26 08:48:46;;;;;;;6.85;3.20;;;;;;;;;;5054508;28;20265;-50
2023/02/26 08:51:12;;;;;;;3.30;3.00;;;;;;;;;;5047104;28;20183;-50
2023/02/26 08:53:39;;;;;;;2.92;2.72;;;;;;;;;;5055642;28;20620;-51
2023/02/26 08:56:05;;;;;;;3.28;2.97;;;;;;;;;;5054578;28;20270;-51
2023/02/26 08:58:31;;;;;;;3.35;2.60;;;;;;;;;;5039559;28;20171;-50
2023/02/26 09:00:57;;;;;;;4.85;2.75;;;;;;;;;;5040246;28;20176;-51
2023/02/26 09:03:22;;;;;;;2.72;2.53;;;;;;;;;;5049510;28;20186;-51
2023/02/26 09:05:50;;;;;;;2.80;2.60;;;;;;;;;;5049420;28;20578;-50
2023/02/26 09:08:15;;;;;;;3.70;2.80;;;;;;;;;;5053651;28;20203;-50
2023/02/26 09:10:41;;;;;;;5.00;2.90;;;;;;;;;;5056319;28;20225;-51
2023/02/26 09:13:08;;;;;;;2.83;2.55;;;;;;;;;;5061875;28;20467;-51
2023/02/26 09:15:34;;;;;;;3.20;2.60;;;;;;;;;;5062142;28;20205;-51
2023/02/26 09:18:00;;;;;;;2.53;2.33;;;;;;;;;;5049324;28;20565;-51
2023/02/26 09:20:26;;;;;;;3.92;2.28;;;;;;;;;;5053180;28;20187;-50
2023/02/26 09:22:52;;;;;;;3.00;2.35;;;;;;;;;;5046795;28;20175;-51
2023/02/26 09:25:18;;;;;;;2.30;2.10;;;;;;;;;;5073688;28;20478;-51
2023/02/26 09:27:44;;;;;;;2.50;2.30;;;;;;;;;;5050556;28;20175;-51
2023/02/26 09:30:10;;;;;;;3.15;2.40;;;;;;;;;;5065318;28;20277;-50
2023/02/26 09:32:36;;;;;;;2.47;2.00;;;;;;;;;;5065797;28;20554;-51
2023/02/26 09:35:03;;;;;;;5.03;2.20;;;;;;;;;;5069524;28;20187;-51
2023/02/26 09:37:29;;;;;;;2.90;1.95;;;;;;;;;;5047034;28;20210;-51
2023/02/26 09:39:55;;;;;;;2.08;1.83;;;;;;;;;;5052029;28;20227;-51
2023/02/26 09:42:41;;;;;;;2.30;2.10;;;;;;;;;;5050249;28;20822;-51
2023/02/26 09:45:12;;;;;;;2.72;2.10;;;;;;;;;;5061426;28;20193;-51
2023/02/26 09:47:49;;;;;;;2.20;2.00;;;;;;;;;;5062906;28;20227;-51
2023/02/26 09:50:22;;;;;;;1.80;1.70;;;;;;;;;;5065790;28;20178;-51
2023/02/26 09:53:01;;;;;;;1.98;1.77;;;;;;;;;;5060234;28;20251;-51
2023/02/26 09:55:27;;;;;;;2.25;2.05;;;;;;;;;;5063303;28;20186;-51
2023/02/26 09:57:56;;;;;;;1.88;1.77;;;;;;;;;;5052197;28;20214;-51
2023/02/26 10:00:23;;;;;;;1.75;1.65;;;;;;;;;;5052285;28;20190;-51
2023/02/26 10:02:57;;;;;;;2.03;1.83;;;;;;;;;;5048732;28;20192;-50
2023/02/26 10:05:42;;;;;;;1.80;1.70;;;;;;;;;;5050307;28;20269;-50
2023/02/26 10:08:14;;;;;;;2.00;1.77;;;;;;;;;;5050287;28;20618;-50
2023/02/26 10:10:48;;;;;;;3.03;1.70;;;;;;;;;;5053999;28;20183;-50
2023/02/26 10:13:35;;;;;;;1.50;1.40;;;;;;;;;;5044810;28;20516;-50
2023/02/26 10:16:08;;;;;;;1.63;1.38;;;;;;;;;;5050447;28;20619;-50
2023/02/26 10:18:37;;;;;;;1.60;1.50;;;;;;;;;;5062218;28;20270;-50
2023/02/26 10:21:17;;;;;;;3.30;1.40;;;;;;;;;;5060400;28;20228;-50
2023/02/26 10:23:47;;;;;;;2.78;1.45;;;;;;;;;;5047876;28;20186;-50
2023/02/26 10:26:18;;;;;;;2.03;1.45;;;;;;;;;;5052154;28;20183;-50
2023/02/26 10:28:44;;;;;;;3.28;1.73;;;;;;;;;;5068336;28;20194;-50
2023/02/26 10:31:21;;;;;;;1.58;1.48;;;;;;;;;;5059653;28;20270;-50
2023/02/26 10:33:52;;;;;;;1.70;1.60;;;;;;;;;;5066590;28;20206;-50
2023/02/26 10:36:24;;;;;;;2.22;1.50;;;;;;;;;;5056746;28;20257;-50
2023/02/26 10:38:52;;;;;;;1.60;1.40;;;;;;;;;;5063717;28;20170;-50
2023/02/26 10:41:20;;;;;;;1.40;1.30;;;;;;;;;;5068294;28;20184;-50
2023/02/26 10:43:49;;;;;;;4.57;1.42;;;;;;;;;;5049530;28;20205;-50
2023/02/26 10:46:22;;;;;;;1.58;1.27;;;;;;;;;;5063699;28;20196;-50
2023/02/26 10:49:13;;;;;;;1.85;1.30;;;;;;;;;;5053471;28;20206;-50
2023/02/26 10:51:39;;;;;;;1.55;1.30;;;;;;;;;;5034810;28;20486;-50
2023/02/26 10:54:25;;;;;;;1.35;1.20;;;;;;;;;;5034566;28;20179;-50
2023/02/26 10:56:51;;;;;;;1.25;1.15;;;;;;;;;;5034343;28;20199;-50
2023/02/26 10:59:17;;;;;;;1.23;1.13;;;;;;;;;;5050569;28;20399;-50
2023/02/26 11:01:43;;;;;;;1.20;1.10;;;;;;;;;;5039687;28;20577;-50
2023/02/26 11:04:11;;;;;;;1.38;1.27;;;;;;;;;;5043546;28;20183;-50
2023/02/26 11:06:39;;;;;;;1.48;1.30;;;;;;;;;;5044686;28;20577;-50
2023/02/26 11:09:16;;;;;;;2.20;1.20;;;;;;;;;;5048001;28;20710;-50
2023/02/26 11:11:45;;;;;;;1.67;1.13;;;;;;;;;;5058565;28;20178;-49
2023/02/26 11:14:11;;;;;;;1.27;1.10;;;;;;;;;;5071439;28;20179;-50
2023/02/26 11:16:41;;;;;;;1.30;1.20;;;;;;;;;;5052903;28;20559;-50
2023/02/26 11:19:08;;;;;;;1.17;1.08;;;;;;;;;;5041557;28;20190;-50
2023/02/26 11:21:38;;;;;;;1.33;1.20;;;;;;;;;;5050175;28;20194;-50
2023/02/26 11:24:11;;;;;;;1.45;1.00;;;;;;;;;;5046777;28;20179;-50
2023/02/26 11:26:38;;;;;;;1.50;1.20;;;;;;;;;;5048608;28;20266;-50
2023/02/26 11:29:05;;;;;;;1.30;1.20;;;;;;;;;;5054973;28;20671;-50
2023/02/26 11:31:31;;;;;;;1.17;0.98;;;;;;;;;;5059730;28;20182;-50
2023/02/26 11:34:04;;;;;;;1.05;1.00;;;;;;;;;;5075470;28;20190;-49
2023/02/26 11:36:32;;;;;;;1.20;0.93;;;;;;;;;;5054910;28;20290;-50
2023/02/26 11:39:01;;;;;;;0.90;0.90;;;;;;;;;;5064253;28;20615;-50
2023/02/26 11:41:28;;;;;;;1.67;1.10;;;;;;;;;;5062642;28;20180;-50
2023/02/26 11:44:02;;;;;;;1.58;1.10;;;;;;;;;;5048716;28;20217;-50
2023/02/26 11:46:28;;;;;;;1.08;0.98;;;;;;;;;;5066244;28;20198;-50
2023/02/26 11:48:56;;;;;;;1.10;0.88;;;;;;;;;;5056474;28;20183;-50
2023/02/26 11:51:24;;;;;;;1.40;0.90;;;;;;;;;;5072853;28;20214;-50
2023/02/26 11:53:54;;;;;;;1.10;1.00;;;;;;;;;;5070790;28;20229;-50
2023/02/26 11:56:25;;;;;;;0.80;0.80;;;;;;;;;;5069057;28;20210;-49
2023/02/26 11:58:54;;;;;;;0.90;0.90;;;;;;;;;;5056537;28;20228;-51
2023/02/26 12:01:21;;;;;;;0.75;0.75;;;;;;;;;;5065194;28;20436;-51
2023/02/26 12:03:49;;;;;;;1.02;0.98;;;;;;;;;;5063340;28;20183;-51
2023/02/26 12:06:20;;;;;;;0.90;0.90;;;;;;;;;;5061865;28;20258;-52
2023/02/26 12:08:47;;;;;;;1.38;0.82;;;;;;;;;;5065881;28;20202;-51
2023/02/26 12:11:16;;;;;;;0.90;0.90;;;;;;;;;;5066647;28;20194;-51
2023/02/26 12:13:57;;;;;;;1.25;0.90;;;;;;;;;;5053567;28;20576;-52
2023/02/26 12:16:26;;;;;;;0.82;0.82;;;;;;;;;;5059269;28;20604;-51
2023/02/26 12:18:52;;;;;;;0.80;0.80;;;;;;;;;;5068006;28;20190;-52
2023/02/26 12:21:29;;;;;;;1.02;0.90;;;;;;;;;;5053799;28;20194;-51
2023/02/26 12:24:06;;;;;;;0.82;0.77;;;;;;;;;;5042427;28;20592;-51
2023/02/26 12:26:33;;;;;;;1.08;0.80;;;;;;;;;;5054115;28;20194;-51
2023/02/26 12:29:10;;;;;;;0.65;0.65;;;;;;;;;;5062969;28;20466;-51
2023/02/26 12:31:38;;;;;;;1.00;0.88;;;;;;;;;;5058776;28;20174;-51
2023/02/26 12:34:19;;;;;;;1.33;0.90;;;;;;;;;;5051167;28;20302;-51
2023/02/26 12:37:20;;;;;;;0.80;0.80;;;;;;;;;;5051886;28;20198;-51
2023/02/26 12:39:46;;;;;;;1.30;0.90;;;;;;;;;;5030300;28;20183;-50
2023/02/26 12:42:30;;;;;;;0.88;0.80;;;;;;;;;;5044713;28;20242;-51
2023/02/26 12:45:12;;;;;;;1.00;0.90;;;;;;;;;;5053810;28;20511;-50
2023/02/26 12:47:50;;;;;;;0.70;0.70;;;;;;;;;;5051586;28;20187;-51
2023/02/26 12:50:16;;;;;;;0.80;0.80;;;;;;;;;;5044833;28;20183;-50
2023/02/26 12:53:05;;;;;;;1.00;0.80;;;;;;;;;;5047959;28;20185;-51
2023/02/26 12:55:38;;;;;;;0.70;0.70;;;;;;;;;;5046685;28;20574;-50
2023/02/26 12:58:11;;;;;;;1.25;0.90;;;;;;;;;;5044021;28;20582;-51
2023/02/26 13:00:40;;;;;;;1.02;0.85;;;;;;;;;;5053170;28;20273;-51
2023/02/26 13:03:16;;;;;;;1.35;0.93;;;;;;;;;;5050758;28;20172;-51
2023/02/26 13:05:59;;;;;;;1.67;1.00;;;;;;;;;;5047377;28;20266;-51
2023/02/26 13:08:32;;;;;;;0.80;0.80;;;;;;;;;;5052554;28;20207;-51
2023/02/26 13:11:06;;;;;;;1.45;0.73;;;;;;;;;;5059906;28;20304;-51
2023/02/26 13:13:39;;;;;;;0.70;0.70;;;;;;;;;;5062432;28;20462;-50
2023/02/26 13:16:11;;;;;;;0.80;0.80;;;;;;;;;;5041462;28;20552;-51
2023/02/26 13:18:43;;;;;;;0.82;0.80;;;;;;;;;;5044248;28;20179;-51
2023/02/26 13:21:32;;;;;;;0.85;0.80;;;;;;;;;;5051528;28;20183;-50
2023/02/26 13:24:04;;;;;;;0.88;0.80;;;;;;;;;;5032984;28;20183;-51
2023/02/26 13:26:30;;;;;;;0.70;0.70;;;;;;;;;;5042695;28;20202;-50
2023/02/26 13:28:59;;;;;;;0.70;0.70;;;;;;;;;;5070243;28;20198;-51
2023/02/26 13:31:33;;;;;;;0.80;0.77;;;;;;;;;;5061868;28;20188;-51
2023/02/26 13:34:02;;;;;;;0.70;0.70;;;;;;;;;;5063742;28;20202;-50
2023/02/26 13:36:28;;;;;;;1.00;0.90;;;;;;;;;;5052767;28;20226;-50
2023/02/26 13:39:03;;;;;;;0.77;0.60;;;;;;;;;;5054006;28;20182;-50
2023/02/26 13:41:49;;;;;;;1.25;0.80;;;;;;;;;;5066019;28;20182;-50
2023/02/26 13:44:30;;;;;;;0.63;0.63;;;;;;;;;;5038403;28;20424;-50
2023/02/26 13:47:15;;;;;;;0.80;0.80;;;;;;;;;;5041187;28;20247;-51
2023/02/26 13:50:00;;;;;;;1.08;0.93;;;;;;;;;;5049398;28;20185;-51
2023/02/26 13:52:34;;;;;;;0.82;0.70;;;;;;;;;;5060424;28;20264;-50
2023/02/26 13:55:01;;;;;;;0.80;0.70;;;;;;;;;;5055365;28;20163;-50
2023/02/26 13:57:35;;;;;;;0.65;0.65;;;;;;;;;;5045937;28;20261;-50
2023/02/26 14:00:11;;;;;;;0.82;0.77;;;;;;;;;;5050554;28;20218;-50
2023/02/26 14:02:45;;;;;;;0.90;0.60;;;;;;;;;;5059638;28;20198;-50
2023/02/26 14:05:31;;;;;;;0.75;0.70;;;;;;;;;;5056303;28;20266;-50
2023/02/26 14:08:00;;;;;;;0.80;0.70;;;;;;;;;;5050559;28;20187;-50
2023/02/26 14:10:29;;;;;;;2.45;0.90;;;;;;;;;;5059147;28;20510;-50
2023/02/26 14:13:02;;;;;;;0.95;0.88;;;;;;;;;;5048640;28;20184;-50
2023/02/26 14:15:39;;;;;;;0.70;0.70;;;;;;;;;;5035286;28;20662;-50
2023/02/26 14:18:18;;;;;;;1.08;0.85;;;;;;;;;;5048764;28;20285;-50
2023/02/26 14:20:45;;;;;;;0.60;0.60;;;;;;;;;;5043800;28;20210;-51
2023/02/26 14:23:13;;;;;;;0.93;0.80;;;;;;;;;;5045430;28;20180;-50
2023/02/26 14:25:59;;;;;;;1.35;1.00;;;;;;;;;;5050911;28;21760;-50
2023/02/26 14:28:25;;;;;;;1.02;0.90;;;;;;;;;;5038082;28;20265;-50
2023/02/26 14:30:53;;;;;;;3.50;1.00;;;;;;;;;;5045426;28;20183;-50
2023/02/26 14:33:19;;;;;;;0.70;0.70;;;;;;;;;;5054206;28;20190;-50
2023/02/26 14:35:49;;;;;;;0.73;0.70;;;;;;;;;;5052774;28;20179;-50
2023/02/26 14:38:14;;;;;;;0.93;0.70;;;;;;;;;;5046880;28;20214;-50
2023/02/26 14:40:46;;;;;;;1.35;0.80;;;;;;;;;;5053929;28;20179;-50